sensor_id;sensor_type;location;lat;lon;timestamp;P1;durP1;ratioP1;P2;durP2;ratioP2
4186;SDS011;2107;52.306;10.484;2024-03-02T00:00:22;0.10;;;0.10;;
4186;SDS011;2107;52.306;10.484;2024-03-02T00:02:50;0.10;;;0.10;;
4186;SDS011;2107;52.306;10.484;2024-03-02T00:05:19;0.20;;;0.20;;
4186;SDS011;2107;52.306;10.484;2024-03-02T00:07:52;0.10;;;0.10;;
4186;SDS011;2107;52.306;10.484;2024-03-02T00:10:21;0.10;;;0.10;;
4186;SDS011;2107;52.306;10.484;2024-03-02T00:12:54;0.10;;;0.10;;
4186;SDS011;2107;52.306;10.484;2024-03-02T00:18:07;0.10;;;0.10;;
4186;SDS011;2107;52.306;10.484;2024-03-02T00:20:36;0.10;;;0.10;;
4186;SDS011;2107;52.306;10.484;2024-03-02T00:23:03;0.10;;;0.10;;
4186;SDS011;2107;52.306;10.484;2024-03-02T00:25:36;0.10;;;0.10;;
4186;SDS011;2107;52.306;10.484;2024-03-02T00:28:09;0.10;;;0.10;;
4186;SDS011;2107;52.306;10.484;2024-03-02T00:30:51;0.10;;;0.10;;
4186;SDS011;2107;52.306;10.484;2024-03-02T00:33:21;0.10;;;0.10;;
4186;SDS011;2107;52.306;10.484;2024-03-02T00:35:50;0.20;;;0.20;;
4186;SDS011;2107;52.306;10.484;2024-03-02T00:38:17;0.10;;;0.10;;
4186;SDS011;2107;52.306;10.484;2024-03-02T00:40:44;0.20;;;0.20;;
4186;SDS011;2107;52.306;10.484;2024-03-02T00:46:07;0.20;;;0.20;;
4186;SDS011;2107;52.306;10.484;2024-03-02T00:48:34;0.20;;;0.20;;
4186;SDS011;2107;52.306;10.484;2024-03-02T00:51:03;0.20;;;0.20;;
4186;SDS011;2107;52.306;10.484;2024-03-02T00:53:30;0.20;;;0.20;;
4186;SDS011;2107;52.306;10.484;2024-03-02T00:55:58;0.20;;;0.20;;
4186;SDS011;2107;52.306;10.484;2024-03-02T00:58:25;0.20;;;0.20;;
4186;SDS011;2107;52.306;10.484;2024-03-02T01:00:52;0.10;;;0.10;;
4186;SDS011;2107;52.306;10.484;2024-03-02T01:03:20;0.20;;;0.20;;
4186;SDS011;2107;52.306;10.484;2024-03-02T01:05:47;0.20;;;0.20;;
4186;SDS011;2107;52.306;10.484;2024-03-02T01:08:15;0.20;;;0.20;;
4186;SDS011;2107;52.306;10.484;2024-03-02T01:10:42;0.10;;;0.10;;
4186;SDS011;2107;52.306;10.484;2024-03-02T01:13:09;0.13;;;0.13;;
4186;SDS011;2107;52.306;10.484;2024-03-02T01:15:37;0.10;;;0.10;;
4186;SDS011;2107;52.306;10.484;2024-03-02T01:18:04;0.10;;;0.10;;
4186;SDS011;2107;52.306;10.484;2024-03-02T01:20:31;0.10;;;0.10;;
4186;SDS011;2107;52.306;10.484;2024-03-02T01:22:58;0.10;;;0.10;;
4186;SDS011;2107;52.306;10.484;2024-03-02T01:25:26;0.20;;;0.20;;
4186;SDS011;2107;52.306;10.484;2024-03-02T01:27:53;0.10;;;0.10;;
4186;SDS011;2107;52.306;10.484;2024-03-02T01:30:20;0.10;;;0.10;;
4186;SDS011;2107;52.306;10.484;2024-03-02T01:32:47;0.10;;;0.10;;
4186;SDS011;2107;52.306;10.484;2024-03-02T01:35:14;0.13;;;0.13;;
4186;SDS011;2107;52.306;10.484;2024-03-02T01:37:41;0.10;;;0.10;;
4186;SDS011;2107;52.306;10.484;2024-03-02T01:40:09;0.20;;;0.20;;
4186;SDS011;2107;52.306;10.484;2024-03-02T01:42:38;0.10;;;0.10;;
4186;SDS011;2107;52.306;10.484;2024-03-02T01:45:05;0.10;;;0.10;;
4186;SDS011;2107;52.306;10.484;2024-03-02T01:47:34;0.10;;;0.10;;
4186;SDS011;2107;52.306;10.484;2024-03-02T01:50:01;0.10;;;0.10;;
4186;SDS011;2107;52.306;10.484;2024-03-02T01:52:28;0.10;;;0.10;;
4186;SDS011;2107;52.306;10.484;2024-03-02T01:54:55;0.10;;;0.10;;
4186;SDS011;2107;52.306;10.484;2024-03-02T01:57:22;0.10;;;0.10;;
4186;SDS011;2107;52.306;10.484;2024-03-02T01:59:51;0.20;;;0.20;;
4186;SDS011;2107;52.306;10.484;2024-03-02T02:02:18;0.10;;;0.10;;
4186;SDS011;2107;52.306;10.484;2024-03-02T02:04:46;0.10;;;0.10;;
4186;SDS011;2107;52.306;10.484;2024-03-02T02:07:13;0.20;;;0.20;;
4186;SDS011;2107;52.306;10.484;2024-03-02T02:09:40;0.10;;;0.10;;
4186;SDS011;2107;52.306;10.484;2024-03-02T02:12:07;0.10;;;0.10;;
4186;SDS011;2107;52.306;10.484;2024-03-02T02:14:35;0.10;;;0.10;;
4186;SDS011;2107;52.306;10.484;2024-03-02T02:17:03;0.10;;;0.10;;
4186;SDS011;2107;52.306;10.484;2024-03-02T02:19:30;0.10;;;0.10;;
4186;SDS011;2107;52.306;10.484;2024-03-02T02:21:59;0.10;;;0.10;;
4186;SDS011;2107;52.306;10.484;2024-03-02T02:24:25;0.10;;;0.10;;
4186;SDS011;2107;52.306;10.484;2024-03-02T02:26:52;0.10;;;0.10;;
4186;SDS011;2107;52.306;10.484;2024-03-02T02:29:19;0.10;;;0.10;;
4186;SDS011;2107;52.306;10.484;2024-03-02T02:31:46;0.10;;;0.10;;
4186;SDS011;2107;52.306;10.484;2024-03-02T02:34:13;0.10;;;0.10;;
4186;SDS011;2107;52.306;10.484;2024-03-02T02:36:40;0.10;;;0.10;;
4186;SDS011;2107;52.306;10.484;2024-03-02T02:39:11;0.10;;;0.10;;
4186;SDS011;2107;52.306;10.484;2024-03-02T02:41:40;0.10;;;0.10;;
4186;SDS011;2107;52.306;10.484;2024-03-02T02:44:07;0.10;;;0.10;;
4186;SDS011;2107;52.306;10.484;2024-03-02T02:46:36;0.10;;;0.10;;
4186;SDS011;2107;52.306;10.484;2024-03-02T02:49:03;0.10;;;0.10;;
4186;SDS011;2107;52.306;10.484;2024-03-02T02:51:30;0.00;;;0.00;;
4186;SDS011;2107;52.306;10.484;2024-03-02T02:53:57;0.10;;;0.10;;
4186;SDS011;2107;52.306;10.484;2024-03-02T02:56:25;0.10;;;0.10;;
4186;SDS011;2107;52.306;10.484;2024-03-02T02:58:52;0.00;;;0.00;;
4186;SDS011;2107;52.306;10.484;2024-03-02T03:01:19;0.10;;;0.10;;
4186;SDS011;2107;52.306;10.484;2024-03-02T03:03:46;0.10;;;0.10;;
4186;SDS011;2107;52.306;10.484;2024-03-02T03:06:13;0.10;;;0.10;;
4186;SDS011;2107;52.306;10.484;2024-03-02T03:08:40;0.10;;;0.10;;
4186;SDS011;2107;52.306;10.484;2024-03-02T03:11:07;0.10;;;0.10;;
4186;SDS011;2107;52.306;10.484;2024-03-02T03:13:35;0.10;;;0.10;;
4186;SDS011;2107;52.306;10.484;2024-03-02T03:16:02;0.10;;;0.10;;
4186;SDS011;2107;52.306;10.484;2024-03-02T03:18:30;0.10;;;0.10;;
4186;SDS011;2107;52.306;10.484;2024-03-02T03:20:57;0.10;;;0.10;;
4186;SDS011;2107;52.306;10.484;2024-03-02T03:23:24;0.10;;;0.10;;
4186;SDS011;2107;52.306;10.484;2024-03-02T03:25:51;0.10;;;0.10;;
4186;SDS011;2107;52.306;10.484;2024-03-02T03:28:18;0.10;;;0.10;;
4186;SDS011;2107;52.306;10.484;2024-03-02T03:30:46;0.10;;;0.10;;
4186;SDS011;2107;52.306;10.484;2024-03-02T03:33:13;0.10;;;0.10;;
4186;SDS011;2107;52.306;10.484;2024-03-02T03:35:39;0.10;;;0.10;;
4186;SDS011;2107;52.306;10.484;2024-03-02T03:38:06;0.10;;;0.10;;
4186;SDS011;2107;52.306;10.484;2024-03-02T03:40:33;0.10;;;0.10;;
4186;SDS011;2107;52.306;10.484;2024-03-02T03:43:00;0.10;;;0.10;;
4186;SDS011;2107;52.306;10.484;2024-03-02T03:45:27;0.10;;;0.10;;
4186;SDS011;2107;52.306;10.484;2024-03-02T03:47:56;0.10;;;0.10;;
4186;SDS011;2107;52.306;10.484;2024-03-02T03:50:23;0.10;;;0.10;;
4186;SDS011;2107;52.306;10.484;2024-03-02T03:52:50;0.10;;;0.10;;
4186;SDS011;2107;52.306;10.484;2024-03-02T03:55:17;0.10;;;0.10;;
4186;SDS011;2107;52.306;10.484;2024-03-02T03:57:44;0.10;;;0.10;;
4186;SDS011;2107;52.306;10.484;2024-03-02T04:00:11;0.10;;;0.10;;
4186;SDS011;2107;52.306;10.484;2024-03-02T04:02:39;0.10;;;0.10;;
4186;SDS011;2107;52.306;10.484;2024-03-02T04:05:07;0.10;;;0.10;;
4186;SDS011;2107;52.306;10.484;2024-03-02T04:07:35;0.10;;;0.10;;
4186;SDS011;2107;52.306;10.484;2024-03-02T04:10:06;0.07;;;0.07;;
4186;SDS011;2107;52.306;10.484;2024-03-02T04:12:34;0.10;;;0.10;;
4186;SDS011;2107;52.306;10.484;2024-03-02T04:15:02;0.10;;;0.10;;
4186;SDS011;2107;52.306;10.484;2024-03-02T04:17:31;0.10;;;0.10;;
4186;SDS011;2107;52.306;10.484;2024-03-02T04:19:59;0.10;;;0.10;;
4186;SDS011;2107;52.306;10.484;2024-03-02T04:22:27;0.10;;;0.10;;
4186;SDS011;2107;52.306;10.484;2024-03-02T04:24:54;0.10;;;0.10;;
4186;SDS011;2107;52.306;10.484;2024-03-02T04:27:21;0.10;;;0.10;;
4186;SDS011;2107;52.306;10.484;2024-03-02T04:29:48;0.10;;;0.10;;
4186;SDS011;2107;52.306;10.484;2024-03-02T04:32:15;0.10;;;0.10;;
4186;SDS011;2107;52.306;10.484;2024-03-02T04:34:42;0.10;;;0.10;;
4186;SDS011;2107;52.306;10.484;2024-03-02T04:37:10;0.10;;;0.10;;
4186;SDS011;2107;52.306;10.484;2024-03-02T04:39:40;0.10;;;0.10;;
4186;SDS011;2107;52.306;10.484;2024-03-02T04:42:07;0.10;;;0.10;;
4186;SDS011;2107;52.306;10.484;2024-03-02T04:44:34;0.10;;;0.10;;
4186;SDS011;2107;52.306;10.484;2024-03-02T04:47:02;0.10;;;0.10;;
4186;SDS011;2107;52.306;10.484;2024-03-02T04:49:29;0.10;;;0.10;;
4186;SDS011;2107;52.306;10.484;2024-03-02T04:51:56;0.10;;;0.10;;
4186;SDS011;2107;52.306;10.484;2024-03-02T04:54:23;0.10;;;0.10;;
4186;SDS011;2107;52.306;10.484;2024-03-02T04:56:51;0.10;;;0.10;;
4186;SDS011;2107;52.306;10.484;2024-03-02T04:59:18;0.10;;;0.10;;
4186;SDS011;2107;52.306;10.484;2024-03-02T05:01:46;0.10;;;0.10;;
4186;SDS011;2107;52.306;10.484;2024-03-02T05:04:13;0.10;;;0.10;;
4186;SDS011;2107;52.306;10.484;2024-03-02T05:06:40;0.10;;;0.10;;
4186;SDS011;2107;52.306;10.484;2024-03-02T05:09:07;0.10;;;0.10;;
4186;SDS011;2107;52.306;10.484;2024-03-02T05:11:34;0.10;;;0.10;;
4186;SDS011;2107;52.306;10.484;2024-03-02T05:14:26;0.10;;;0.10;;
4186;SDS011;2107;52.306;10.484;2024-03-02T05:16:53;0.00;;;0.00;;
4186;SDS011;2107;52.306;10.484;2024-03-02T05:19:20;0.10;;;0.10;;
4186;SDS011;2107;52.306;10.484;2024-03-02T05:21:47;0.10;;;0.10;;
4186;SDS011;2107;52.306;10.484;2024-03-02T05:24:14;0.10;;;0.10;;
4186;SDS011;2107;52.306;10.484;2024-03-02T05:26:41;0.10;;;0.10;;
4186;SDS011;2107;52.306;10.484;2024-03-02T05:29:08;0.10;;;0.10;;
4186;SDS011;2107;52.306;10.484;2024-03-02T05:31:36;0.10;;;0.10;;
4186;SDS011;2107;52.306;10.484;2024-03-02T05:34:03;0.10;;;0.10;;
4186;SDS011;2107;52.306;10.484;2024-03-02T05:36:30;0.10;;;0.10;;
4186;SDS011;2107;52.306;10.484;2024-03-02T05:38:57;0.10;;;0.10;;
4186;SDS011;2107;52.306;10.484;2024-03-02T05:41:24;0.10;;;0.10;;
4186;SDS011;2107;52.306;10.484;2024-03-02T05:43:51;0.10;;;0.10;;
4186;SDS011;2107;52.306;10.484;2024-03-02T05:46:18;0.10;;;0.10;;
4186;SDS011;2107;52.306;10.484;2024-03-02T05:48:46;0.10;;;0.10;;
4186;SDS011;2107;52.306;10.484;2024-03-02T05:51:13;0.10;;;0.10;;
4186;SDS011;2107;52.306;10.484;2024-03-02T05:53:40;0.10;;;0.10;;
4186;SDS011;2107;52.306;10.484;2024-03-02T05:56:08;0.10;;;0.10;;
4186;SDS011;2107;52.306;10.484;2024-03-02T05:58:34;0.10;;;0.10;;
4186;SDS011;2107;52.306;10.484;2024-03-02T06:01:14;0.10;;;0.10;;
4186;SDS011;2107;52.306;10.484;2024-03-02T06:03:43;0.10;;;0.10;;
4186;SDS011;2107;52.306;10.484;2024-03-02T06:06:11;0.10;;;0.10;;
4186;SDS011;2107;52.306;10.484;2024-03-02T06:08:38;0.10;;;0.10;;
4186;SDS011;2107;52.306;10.484;2024-03-02T06:11:05;0.10;;;0.10;;
4186;SDS011;2107;52.306;10.484;2024-03-02T06:13:31;0.00;;;0.00;;
4186;SDS011;2107;52.306;10.484;2024-03-02T06:15:58;0.10;;;0.10;;
4186;SDS011;2107;52.306;10.484;2024-03-02T06:18:25;0.10;;;0.10;;
4186;SDS011;2107;52.306;10.484;2024-03-02T06:20:53;0.10;;;0.10;;
4186;SDS011;2107;52.306;10.484;2024-03-02T06:23:21;0.10;;;0.10;;
4186;SDS011;2107;52.306;10.484;2024-03-02T06:25:48;0.10;;;0.10;;
4186;SDS011;2107;52.306;10.484;2024-03-02T06:28:15;0.10;;;0.10;;
4186;SDS011;2107;52.306;10.484;2024-03-02T06:30:42;0.10;;;0.10;;
4186;SDS011;2107;52.306;10.484;2024-03-02T06:33:09;0.10;;;0.10;;
4186;SDS011;2107;52.306;10.484;2024-03-02T06:35:35;0.10;;;0.10;;
4186;SDS011;2107;52.306;10.484;2024-03-02T06:38:03;0.10;;;0.10;;
4186;SDS011;2107;52.306;10.484;2024-03-02T06:40:31;0.10;;;0.10;;
4186;SDS011;2107;52.306;10.484;2024-03-02T06:42:59;0.10;;;0.10;;
4186;SDS011;2107;52.306;10.484;2024-03-02T06:45:26;0.10;;;0.10;;
4186;SDS011;2107;52.306;10.484;2024-03-02T06:47:54;0.10;;;0.10;;
4186;SDS011;2107;52.306;10.484;2024-03-02T06:50:21;0.10;;;0.10;;
4186;SDS011;2107;52.306;10.484;2024-03-02T06:52:48;0.10;;;0.10;;
4186;SDS011;2107;52.306;10.484;2024-03-02T06:55:15;0.20;;;0.20;;
4186;SDS011;2107;52.306;10.484;2024-03-02T06:57:43;0.10;;;0.10;;
4186;SDS011;2107;52.306;10.484;2024-03-02T07:00:10;0.10;;;0.10;;
4186;SDS011;2107;52.306;10.484;2024-03-02T07:02:39;0.10;;;0.10;;
4186;SDS011;2107;52.306;10.484;2024-03-02T07:05:06;0.10;;;0.10;;
4186;SDS011;2107;52.306;10.484;2024-03-02T07:07:33;0.10;;;0.10;;
4186;SDS011;2107;52.306;10.484;2024-03-02T07:10:01;0.10;;;0.10;;
4186;SDS011;2107;52.306;10.484;2024-03-02T07:12:28;0.10;;;0.10;;
4186;SDS011;2107;52.306;10.484;2024-03-02T07:14:57;0.20;;;0.20;;
4186;SDS011;2107;52.306;10.484;2024-03-02T07:17:53;0.10;;;0.10;;
4186;SDS011;2107;52.306;10.484;2024-03-02T07:20:20;0.10;;;0.10;;
4186;SDS011;2107;52.306;10.484;2024-03-02T07:22:47;0.10;;;0.10;;
4186;SDS011;2107;52.306;10.484;2024-03-02T07:25:14;0.10;;;0.10;;
4186;SDS011;2107;52.306;10.484;2024-03-02T07:27:41;0.10;;;0.10;;
4186;SDS011;2107;52.306;10.484;2024-03-02T07:30:13;0.10;;;0.10;;
4186;SDS011;2107;52.306;10.484;2024-03-02T07:32:41;0.20;;;0.20;;
4186;SDS011;2107;52.306;10.484;2024-03-02T07:35:10;0.20;;;0.20;;
4186;SDS011;2107;52.306;10.484;2024-03-02T07:37:38;0.10;;;0.10;;
4186;SDS011;2107;52.306;10.484;2024-03-02T07:40:06;0.10;;;0.10;;
4186;SDS011;2107;52.306;10.484;2024-03-02T07:42:36;0.10;;;0.10;;
4186;SDS011;2107;52.306;10.484;2024-03-02T07:45:04;0.20;;;0.20;;
4186;SDS011;2107;52.306;10.484;2024-03-02T07:47:33;0.20;;;0.20;;
4186;SDS011;2107;52.306;10.484;2024-03-02T07:50:00;0.20;;;0.20;;
4186;SDS011;2107;52.306;10.484;2024-03-02T07:52:27;0.20;;;0.20;;
4186;SDS011;2107;52.306;10.484;2024-03-02T07:54:55;0.20;;;0.20;;
4186;SDS011;2107;52.306;10.484;2024-03-02T07:57:22;0.20;;;0.20;;
4186;SDS011;2107;52.306;10.484;2024-03-02T07:59:50;0.20;;;0.20;;
4186;SDS011;2107;52.306;10.484;2024-03-02T08:02:18;0.20;;;0.20;;
4186;SDS011;2107;52.306;10.484;2024-03-02T08:04:47;0.20;;;0.20;;
4186;SDS011;2107;52.306;10.484;2024-03-02T08:07:15;0.20;;;0.20;;
4186;SDS011;2107;52.306;10.484;2024-03-02T08:09:42;0.20;;;0.20;;
4186;SDS011;2107;52.306;10.484;2024-03-02T08:12:11;0.20;;;0.20;;
4186;SDS011;2107;52.306;10.484;2024-03-02T08:14:41;0.20;;;0.20;;
4186;SDS011;2107;52.306;10.484;2024-03-02T08:17:08;0.20;;;0.20;;
4186;SDS011;2107;52.306;10.484;2024-03-02T08:19:36;0.10;;;0.10;;
4186;SDS011;2107;52.306;10.484;2024-03-02T08:22:05;0.20;;;0.20;;
4186;SDS011;2107;52.306;10.484;2024-03-02T08:24:32;0.20;;;0.20;;
4186;SDS011;2107;52.306;10.484;2024-03-02T08:27:00;0.20;;;0.20;;
4186;SDS011;2107;52.306;10.484;2024-03-02T08:29:32;0.20;;;0.20;;
4186;SDS011;2107;52.306;10.484;2024-03-02T08:31:59;0.20;;;0.20;;
4186;SDS011;2107;52.306;10.484;2024-03-02T08:34:26;0.20;;;0.20;;
4186;SDS011;2107;52.306;10.484;2024-03-02T08:36:56;0.20;;;0.20;;
4186;SDS011;2107;52.306;10.484;2024-03-02T08:39:24;0.20;;;0.20;;
4186;SDS011;2107;52.306;10.484;2024-03-02T08:41:51;0.20;;;0.20;;
4186;SDS011;2107;52.306;10.484;2024-03-02T08:44:18;0.27;;;0.27;;
4186;SDS011;2107;52.306;10.484;2024-03-02T08:46:45;0.20;;;0.20;;
4186;SDS011;2107;52.306;10.484;2024-03-02T08:49:12;0.20;;;0.20;;
4186;SDS011;2107;52.306;10.484;2024-03-02T08:51:39;0.20;;;0.20;;
4186;SDS011;2107;52.306;10.484;2024-03-02T08:54:06;0.20;;;0.20;;
4186;SDS011;2107;52.306;10.484;2024-03-02T08:56:34;0.20;;;0.20;;
4186;SDS011;2107;52.306;10.484;2024-03-02T08:59:02;0.20;;;0.20;;
4186;SDS011;2107;52.306;10.484;2024-03-02T09:01:29;0.20;;;0.20;;
4186;SDS011;2107;52.306;10.484;2024-03-02T09:03:56;0.30;;;0.30;;
4186;SDS011;2107;52.306;10.484;2024-03-02T09:06:23;0.30;;;0.30;;
4186;SDS011;2107;52.306;10.484;2024-03-02T09:08:50;0.30;;;0.30;;
4186;SDS011;2107;52.306;10.484;2024-03-02T09:11:17;0.40;;;0.40;;
4186;SDS011;2107;52.306;10.484;2024-03-02T09:13:45;0.30;;;0.30;;
4186;SDS011;2107;52.306;10.484;2024-03-02T09:16:12;0.30;;;0.30;;
4186;SDS011;2107;52.306;10.484;2024-03-02T09:18:39;0.30;;;0.30;;
4186;SDS011;2107;52.306;10.484;2024-03-02T09:21:06;0.30;;;0.30;;
4186;SDS011;2107;52.306;10.484;2024-03-02T09:23:33;0.20;;;0.20;;
4186;SDS011;2107;52.306;10.484;2024-03-02T09:26:00;0.30;;;0.30;;
4186;SDS011;2107;52.306;10.484;2024-03-02T09:28:28;0.30;;;0.30;;
4186;SDS011;2107;52.306;10.484;2024-03-02T09:30:56;0.30;;;0.30;;
4186;SDS011;2107;52.306;10.484;2024-03-02T09:33:23;0.27;;;0.27;;
4186;SDS011;2107;52.306;10.484;2024-03-02T09:35:50;0.30;;;0.30;;
4186;SDS011;2107;52.306;10.484;2024-03-02T09:38:17;0.30;;;0.30;;
4186;SDS011;2107;52.306;10.484;2024-03-02T09:40:44;0.30;;;0.30;;
4186;SDS011;2107;52.306;10.484;2024-03-02T09:43:11;0.40;;;0.40;;
4186;SDS011;2107;52.306;10.484;2024-03-02T09:45:39;0.30;;;0.30;;
4186;SDS011;2107;52.306;10.484;2024-03-02T09:48:08;0.40;;;0.40;;
4186;SDS011;2107;52.306;10.484;2024-03-02T09:50:35;0.30;;;0.30;;
4186;SDS011;2107;52.306;10.484;2024-03-02T09:53:02;0.30;;;0.30;;
4186;SDS011;2107;52.306;10.484;2024-03-02T09:55:30;0.23;;;0.23;;
4186;SDS011;2107;52.306;10.484;2024-03-02T09:57:57;0.30;;;0.30;;
4186;SDS011;2107;52.306;10.484;2024-03-02T10:00:23;0.30;;;0.30;;
4186;SDS011;2107;52.306;10.484;2024-03-02T10:02:51;0.20;;;0.20;;
4186;SDS011;2107;52.306;10.484;2024-03-02T10:05:27;0.20;;;0.20;;
4186;SDS011;2107;52.306;10.484;2024-03-02T10:08:00;0.20;;;0.20;;
4186;SDS011;2107;52.306;10.484;2024-03-02T10:10:34;0.30;;;0.30;;
4186;SDS011;2107;52.306;10.484;2024-03-02T10:13:05;0.30;;;0.30;;
4186;SDS011;2107;52.306;10.484;2024-03-02T10:15:34;0.30;;;0.30;;
4186;SDS011;2107;52.306;10.484;2024-03-02T10:18:01;0.30;;;0.30;;
4186;SDS011;2107;52.306;10.484;2024-03-02T10:20:30;0.30;;;0.30;;
4186;SDS011;2107;52.306;10.484;2024-03-02T10:23:09;0.30;;;0.30;;
4186;SDS011;2107;52.306;10.484;2024-03-02T10:25:36;0.30;;;0.30;;
4186;SDS011;2107;52.306;10.484;2024-03-02T10:28:05;0.30;;;0.30;;
4186;SDS011;2107;52.306;10.484;2024-03-02T10:30:33;0.40;;;0.40;;
4186;SDS011;2107;52.306;10.484;2024-03-02T10:33:00;0.30;;;0.30;;
4186;SDS011;2107;52.306;10.484;2024-03-02T10:35:29;0.30;;;0.30;;
4186;SDS011;2107;52.306;10.484;2024-03-02T10:37:58;0.30;;;0.30;;
4186;SDS011;2107;52.306;10.484;2024-03-02T10:40:26;0.40;;;0.40;;
4186;SDS011;2107;52.306;10.484;2024-03-02T10:42:53;0.50;;;0.50;;
4186;SDS011;2107;52.306;10.484;2024-03-02T10:45:21;0.50;;;0.50;;
4186;SDS011;2107;52.306;10.484;2024-03-02T10:47:49;0.40;;;0.40;;
4186;SDS011;2107;52.306;10.484;2024-03-02T10:50:19;0.60;;;0.60;;
4186;SDS011;2107;52.306;10.484;2024-03-02T10:52:47;0.63;;;0.63;;
4186;SDS011;2107;52.306;10.484;2024-03-02T10:55:15;0.80;;;0.80;;
4186;SDS011;2107;52.306;10.484;2024-03-02T10:57:42;0.80;;;0.80;;
4186;SDS011;2107;52.306;10.484;2024-03-02T11:00:16;0.60;;;0.60;;
4186;SDS011;2107;52.306;10.484;2024-03-02T11:02:50;0.70;;;0.70;;
4186;SDS011;2107;52.306;10.484;2024-03-02T11:05:21;0.60;;;0.60;;
4186;SDS011;2107;52.306;10.484;2024-03-02T11:07:56;0.70;;;0.70;;
4186;SDS011;2107;52.306;10.484;2024-03-02T11:10:28;0.60;;;0.60;;
4186;SDS011;2107;52.306;10.484;2024-03-02T11:13:05;0.60;;;0.60;;
4186;SDS011;2107;52.306;10.484;2024-03-02T11:15:37;0.60;;;0.60;;
4186;SDS011;2107;52.306;10.484;2024-03-02T11:18:09;0.50;;;0.50;;
4186;SDS011;2107;52.306;10.484;2024-03-02T11:20:36;0.40;;;0.40;;
4186;SDS011;2107;52.306;10.484;2024-03-02T11:23:07;0.30;;;0.30;;
4186;SDS011;2107;52.306;10.484;2024-03-02T11:25:34;0.40;;;0.40;;
4186;SDS011;2107;52.306;10.484;2024-03-02T11:28:02;0.40;;;0.40;;
4186;SDS011;2107;52.306;10.484;2024-03-02T11:30:49;0.40;;;0.40;;
4186;SDS011;2107;52.306;10.484;2024-03-02T11:33:22;0.40;;;0.40;;
4186;SDS011;2107;52.306;10.484;2024-03-02T11:35:52;0.30;;;0.30;;
4186;SDS011;2107;52.306;10.484;2024-03-02T11:38:23;0.40;;;0.40;;
4186;SDS011;2107;52.306;10.484;2024-03-02T11:40:59;0.43;;;0.43;;
4186;SDS011;2107;52.306;10.484;2024-03-02T11:43:28;0.60;;;0.60;;
4186;SDS011;2107;52.306;10.484;2024-03-02T11:45:58;0.30;;;0.30;;
4186;SDS011;2107;52.306;10.484;2024-03-02T11:48:29;0.40;;;0.40;;
4186;SDS011;2107;52.306;10.484;2024-03-02T11:50:57;0.40;;;0.40;;
4186;SDS011;2107;52.306;10.484;2024-03-02T11:53:26;0.20;;;0.20;;
4186;SDS011;2107;52.306;10.484;2024-03-02T11:55:55;0.40;;;0.40;;
4186;SDS011;2107;52.306;10.484;2024-03-02T11:58:22;0.50;;;0.50;;
4186;SDS011;2107;52.306;10.484;2024-03-02T12:00:51;0.40;;;0.40;;
4186;SDS011;2107;52.306;10.484;2024-03-02T12:03:20;0.43;;;0.43;;
4186;SDS011;2107;52.306;10.484;2024-03-02T12:05:50;0.50;;;0.50;;
4186;SDS011;2107;52.306;10.484;2024-03-02T12:08:18;0.50;;;0.50;;
4186;SDS011;2107;52.306;10.484;2024-03-02T12:10:57;0.40;;;0.40;;
4186;SDS011;2107;52.306;10.484;2024-03-02T12:13:25;0.50;;;0.50;;
4186;SDS011;2107;52.306;10.484;2024-03-02T12:15:53;0.40;;;0.40;;
4186;SDS011;2107;52.306;10.484;2024-03-02T12:18:21;0.40;;;0.40;;
4186;SDS011;2107;52.306;10.484;2024-03-02T12:20:48;0.40;;;0.40;;
4186;SDS011;2107;52.306;10.484;2024-03-02T12:23:17;0.43;;;0.43;;
4186;SDS011;2107;52.306;10.484;2024-03-02T12:25:44;0.40;;;0.40;;
4186;SDS011;2107;52.306;10.484;2024-03-02T12:28:13;0.40;;;0.40;;
4186;SDS011;2107;52.306;10.484;2024-03-02T12:30:40;0.30;;;0.30;;
4186;SDS011;2107;52.306;10.484;2024-03-02T12:33:07;0.30;;;0.30;;
4186;SDS011;2107;52.306;10.484;2024-03-02T12:35:37;0.43;;;0.43;;
4186;SDS011;2107;52.306;10.484;2024-03-02T12:38:04;0.40;;;0.40;;
4186;SDS011;2107;52.306;10.484;2024-03-02T12:40:31;0.30;;;0.30;;
4186;SDS011;2107;52.306;10.484;2024-03-02T12:42:58;0.30;;;0.30;;
4186;SDS011;2107;52.306;10.484;2024-03-02T12:45:27;0.30;;;0.30;;
4186;SDS011;2107;52.306;10.484;2024-03-02T12:47:54;0.30;;;0.30;;
4186;SDS011;2107;52.306;10.484;2024-03-02T12:50:21;0.40;;;0.40;;
4186;SDS011;2107;52.306;10.484;2024-03-02T12:52:51;0.40;;;0.40;;
4186;SDS011;2107;52.306;10.484;2024-03-02T12:55:19;0.40;;;0.40;;
4186;SDS011;2107;52.306;10.484;2024-03-02T12:57:47;0.40;;;0.40;;
4186;SDS011;2107;52.306;10.484;2024-03-02T13:00:17;0.50;;;0.50;;
4186;SDS011;2107;52.306;10.484;2024-03-02T13:02:46;0.40;;;0.40;;
4186;SDS011;2107;52.306;10.484;2024-03-02T13:05:15;0.40;;;0.40;;
4186;SDS011;2107;52.306;10.484;2024-03-02T13:07:42;0.40;;;0.40;;
4186;SDS011;2107;52.306;10.484;2024-03-02T13:10:10;0.40;;;0.40;;
4186;SDS011;2107;52.306;10.484;2024-03-02T13:12:38;0.60;;;0.60;;
4186;SDS011;2107;52.306;10.484;2024-03-02T13:15:05;0.40;;;0.40;;
4186;SDS011;2107;52.306;10.484;2024-03-02T13:17:34;0.60;;;0.60;;
4186;SDS011;2107;52.306;10.484;2024-03-02T13:20:02;0.60;;;0.60;;
4186;SDS011;2107;52.306;10.484;2024-03-02T13:22:33;0.80;;;0.80;;
4186;SDS011;2107;52.306;10.484;2024-03-02T13:25:00;0.50;;;0.50;;
4186;SDS011;2107;52.306;10.484;2024-03-02T13:27:28;0.60;;;0.60;;
4186;SDS011;2107;52.306;10.484;2024-03-02T13:29:56;0.70;;;0.70;;
4186;SDS011;2107;52.306;10.484;2024-03-02T13:32:23;0.70;;;0.70;;
4186;SDS011;2107;52.306;10.484;2024-03-02T13:34:51;0.50;;;0.50;;
4186;SDS011;2107;52.306;10.484;2024-03-02T13:37:19;0.30;;;0.30;;
4186;SDS011;2107;52.306;10.484;2024-03-02T13:39:46;0.47;;;0.47;;
4186;SDS011;2107;52.306;10.484;2024-03-02T13:42:13;0.43;;;0.43;;
4186;SDS011;2107;52.306;10.484;2024-03-02T13:44:40;0.50;;;0.50;;
4186;SDS011;2107;52.306;10.484;2024-03-02T13:47:10;0.60;;;0.60;;
4186;SDS011;2107;52.306;10.484;2024-03-02T13:49:37;0.50;;;0.50;;
4186;SDS011;2107;52.306;10.484;2024-03-02T13:52:08;0.50;;;0.50;;
4186;SDS011;2107;52.306;10.484;2024-03-02T13:54:40;0.40;;;0.40;;
4186;SDS011;2107;52.306;10.484;2024-03-02T13:57:07;0.43;;;0.43;;
4186;SDS011;2107;52.306;10.484;2024-03-02T13:59:35;0.40;;;0.40;;
4186;SDS011;2107;52.306;10.484;2024-03-02T14:02:03;0.50;;;0.50;;
4186;SDS011;2107;52.306;10.484;2024-03-02T14:04:31;0.40;;;0.40;;
4186;SDS011;2107;52.306;10.484;2024-03-02T14:06:58;0.50;;;0.50;;
4186;SDS011;2107;52.306;10.484;2024-03-02T14:09:25;0.60;;;0.60;;
4186;SDS011;2107;52.306;10.484;2024-03-02T14:11:53;0.50;;;0.50;;
4186;SDS011;2107;52.306;10.484;2024-03-02T14:14:21;0.50;;;0.50;;
4186;SDS011;2107;52.306;10.484;2024-03-02T14:16:49;0.60;;;0.60;;
4186;SDS011;2107;52.306;10.484;2024-03-02T14:19:16;0.60;;;0.60;;
4186;SDS011;2107;52.306;10.484;2024-03-02T14:21:43;0.50;;;0.50;;
4186;SDS011;2107;52.306;10.484;2024-03-02T14:24:11;0.60;;;0.60;;
4186;SDS011;2107;52.306;10.484;2024-03-02T14:26:37;0.60;;;0.60;;
4186;SDS011;2107;52.306;10.484;2024-03-02T14:29:07;0.63;;;0.63;;
4186;SDS011;2107;52.306;10.484;2024-03-02T14:31:34;0.70;;;0.70;;
4186;SDS011;2107;52.306;10.484;2024-03-02T14:34:01;0.50;;;0.50;;
4186;SDS011;2107;52.306;10.484;2024-03-02T14:36:28;0.70;;;0.70;;
4186;SDS011;2107;52.306;10.484;2024-03-02T14:38:55;0.67;;;0.67;;
4186;SDS011;2107;52.306;10.484;2024-03-02T14:41:23;0.60;;;0.60;;
4186;SDS011;2107;52.306;10.484;2024-03-02T14:43:52;0.50;;;0.50;;
4186;SDS011;2107;52.306;10.484;2024-03-02T14:46:20;0.70;;;0.70;;
4186;SDS011;2107;52.306;10.484;2024-03-02T14:48:47;0.63;;;0.63;;
4186;SDS011;2107;52.306;10.484;2024-03-02T14:51:14;0.70;;;0.70;;
4186;SDS011;2107;52.306;10.484;2024-03-02T14:53:41;0.60;;;0.60;;
4186;SDS011;2107;52.306;10.484;2024-03-02T14:56:09;0.60;;;0.60;;
4186;SDS011;2107;52.306;10.484;2024-03-02T14:58:38;0.60;;;0.60;;
4186;SDS011;2107;52.306;10.484;2024-03-02T15:01:08;0.60;;;0.60;;
4186;SDS011;2107;52.306;10.484;2024-03-02T15:03:37;0.60;;;0.60;;
4186;SDS011;2107;52.306;10.484;2024-03-02T15:06:04;0.50;;;0.50;;
4186;SDS011;2107;52.306;10.484;2024-03-02T15:08:32;0.50;;;0.50;;
4186;SDS011;2107;52.306;10.484;2024-03-02T15:11:00;0.50;;;0.50;;